Time;durP1;ratioP1;P1;durP2;ratioP2;P2;SDS_P1;SDS_P2;PMS_P1;PMS_P2;Temp;Humidity;BMP_temperature;BMP_pressure;BME280_temperature;BME280_humidity;BME280_pressure;Samples;Min_cycle;Max_cycle;Signal;HPM_P1;HPM_P2
2022/12/27 00:00:51;;;;;;;2.70;1.33;;;8.90;99.90;;;;;;5071758;28;20108;-36
2022/12/27 00:03:17;;;;;;;2.88;1.40;;;8.90;99.90;;;;;;5071351;28;20021;-36
2022/12/27 00:05:44;;;;;;;2.95;1.10;;;8.90;99.90;;;;;;5071015;28;20040;-36
2022/12/27 00:08:10;;;;;;;2.85;1.40;;;8.90;99.90;;;;;;5070971;28;20036;-36
2022/12/27 00:10:36;;;;;;;1.48;1.00;;;8.90;99.90;;;;;;5073836;28;20100;-36
2022/12/27 00:13:01;;;;;;;2.80;1.10;;;8.90;99.90;;;;;;5077873;28;20100;-36
2022/12/27 00:15:27;;;;;;;2.83;1.08;;;8.90;99.90;;;;;;5077664;28;20488;-36
2022/12/27 00:17:53;;;;;;;2.42;1.33;;;8.90;99.90;;;;;;5077321;28;20033;-36
2022/12/27 00:20:18;;;;;;;3.83;1.30;;;8.90;99.90;;;;;;5077739;28;20017;-36
2022/12/27 00:22:44;;;;;;;3.33;1.40;;;8.90;99.90;;;;;;5077636;28;20024;-36
2022/12/27 00:25:10;;;;;;;2.55;1.15;;;8.90;99.90;;;;;;5077660;28;20123;-36
2022/12/27 00:27:36;;;;;;;3.40;1.40;;;8.90;99.90;;;;;;5077482;28;20478;-36
2022/12/27 00:30:03;;;;;;;3.78;1.88;;;8.80;99.90;;;;;;5077634;28;20028;-36
2022/12/27 00:32:28;;;;;;;16.35;5.05;;;8.90;99.90;;;;;;5078014;28;20021;-36
2022/12/27 00:34:54;;;;;;;18.73;5.03;;;8.90;99.90;;;;;;5077640;28;20044;-36
2022/12/27 00:37:20;;;;;;;15.98;4.82;;;8.90;99.90;;;;;;5077318;28;20129;-36
2022/12/27 00:39:46;;;;;;;8.13;3.10;;;8.80;99.90;;;;;;5078085;28;20028;-35
2022/12/27 00:42:11;;;;;;;7.53;2.70;;;8.80;99.90;;;;;;5077483;28;20451;-36
2022/12/27 00:44:37;;;;;;;5.22;2.13;;;8.80;99.90;;;;;;5077933;28;20028;-36
2022/12/27 00:47:03;;;;;;;8.38;2.67;;;8.80;99.90;;;;;;5077237;28;20056;-36
2022/12/27 00:49:29;;;;;;;8.07;2.55;;;8.80;99.90;;;;;;5077765;28;20496;-36
2022/12/27 00:51:55;;;;;;;4.30;2.35;;;8.80;99.90;;;;;;5077470;28;20016;-36
2022/12/27 00:54:20;;;;;;;4.82;2.03;;;8.80;99.90;;;;;;5076270;28;20036;-36
2022/12/27 00:56:46;;;;;;;6.10;2.13;;;8.80;99.90;;;;;;5077211;28;20546;-36
2022/12/27 00:59:11;;;;;;;6.03;2.25;;;8.80;99.90;;;;;;5077365;28;20025;-36
2022/12/27 01:01:38;;;;;;;6.53;2.38;;;8.80;99.90;;;;;;5077437;28;20111;-36
2022/12/27 01:04:04;;;;;;;6.03;2.35;;;8.80;99.90;;;;;;5077476;28;20024;-36
2022/12/27 01:06:31;;;;;;;4.93;2.00;;;8.70;99.90;;;;;;5077135;28;20040;-35
2022/12/27 01:08:59;;;;;;;5.03;1.88;;;8.70;99.90;;;;;;5077295;28;20017;-36
2022/12/27 01:11:27;;;;;;;4.63;1.80;;;8.70;99.90;;;;;;5077347;28;20017;-36
2022/12/27 01:13:55;;;;;;;3.40;1.70;;;8.70;99.90;;;;;;5077185;28;20013;-36
2022/12/27 01:16:22;;;;;;;7.18;1.90;;;8.70;99.90;;;;;;5077057;28;20024;-35
2022/12/27 01:18:48;;;;;;;6.10;1.77;;;8.70;99.90;;;;;;5077416;28;20028;-36
2022/12/27 01:21:17;;;;;;;7.32;2.10;;;8.70;99.90;;;;;;5077687;28;20162;-37
2022/12/27 01:23:42;;;;;;;5.45;2.33;;;8.60;99.90;;;;;;5073304;28;20462;-37
2022/12/27 01:26:13;;;;;;;5.50;2.20;;;8.70;99.90;;;;;;5073642;28;20036;-37
2022/12/27 01:28:39;;;;;;;5.07;1.80;;;8.60;99.90;;;;;;5073878;28;20094;-39
2022/12/27 01:31:06;;;;;;;5.25;1.80;;;8.60;99.90;;;;;;5074037;28;20527;-37
2022/12/27 01:33:32;;;;;;;4.97;1.88;;;8.60;99.90;;;;;;5073872;28;20028;-37
2022/12/27 01:36:16;;;;;;;4.97;2.10;;;8.60;99.90;;;;;;5073986;28;20020;-38
2022/12/27 01:38:42;;;;;;;3.88;1.45;;;8.60;99.90;;;;;;5073933;28;20039;-38
2022/12/27 01:43:57;;;;;;;6.07;1.35;;;8.60;99.90;;;;;;5074133;28;20051;-37
2022/12/27 01:46:22;;;;;;;4.50;1.50;;;8.50;99.90;;;;;;5073284;28;20059;-37
2022/12/27 01:48:49;;;;;;;2.90;1.38;;;8.60;99.90;;;;;;5073595;28;20025;-37
2022/12/27 01:51:15;;;;;;;4.05;1.63;;;8.50;99.90;;;;;;5073485;28;20025;-38
2022/12/27 01:53:45;;;;;;;3.60;1.35;;;8.50;99.90;;;;;;5073415;28;20093;-37
2022/12/27 01:56:17;;;;;;;2.58;1.20;;;8.50;99.90;;;;;;5073061;28;20035;-38
2022/12/27 01:58:55;;;;;;;3.33;1.35;;;8.50;99.90;;;;;;5073470;28;20023;-37
2022/12/27 02:01:26;;;;;;;5.65;1.60;;;8.50;99.90;;;;;;5073499;28;20410;-37
2022/12/27 02:04:05;;;;;;;4.40;1.40;;;8.50;99.90;;;;;;5073704;28;20017;-37
2022/12/27 02:06:33;;;;;;;3.60;1.30;;;8.40;99.90;;;;;;5072873;28;20032;-38
2022/12/27 02:09:21;;;;;;;2.90;1.20;;;8.40;99.90;;;;;;5073193;28;20029;-37
2022/12/27 02:11:51;;;;;;;4.95;1.50;;;8.40;99.90;;;;;;5073209;28;20024;-38
2022/12/27 02:14:37;;;;;;;4.65;1.52;;;8.40;99.90;;;;;;5072981;28;20029;-37
2022/12/27 02:17:16;;;;;;;2.42;1.20;;;8.40;99.90;;;;;;5072507;28;20029;-37
2022/12/27 02:20:00;;;;;;;3.85;1.50;;;8.40;99.90;;;;;;5072840;28;20033;-38
2022/12/27 02:25:44;;;;;;;4.93;1.60;;;8.40;99.90;;;;;;5072897;28;20040;-37
2022/12/27 02:28:24;;;;;;;5.57;1.38;;;8.40;99.90;;;;;;5072422;28;20107;-37
2022/12/27 02:30:58;;;;;;;5.78;1.60;;;8.40;99.90;;;;;;5073007;28;20440;-38
2022/12/27 02:33:28;;;;;;;2.97;1.23;;;8.40;99.90;;;;;;5072628;28;20016;-38
2022/12/27 02:36:04;;;;;;;4.50;1.40;;;8.30;99.90;;;;;;5072567;28;20025;-38
2022/12/27 02:38:34;;;;;;;1.75;1.08;;;8.30;99.90;;;;;;5072533;28;20012;-38
2022/12/27 02:55:24;;;;;;;3.25;1.30;;;8.30;99.90;;;;;;5071370;28;20043;-37
2022/12/27 02:58:12;;;;;;;3.95;1.17;;;8.30;99.90;;;;;;5072033;28;20058;-37
2022/12/27 03:04:30;;;;;;;3.40;1.33;;;8.30;99.90;;;;;;5054165;28;20055;-37
2022/12/27 03:07:21;;;;;;;3.35;1.45;;;8.20;99.90;;;;;;5060714;28;20032;-37
2022/12/27 03:16:07;;;;;;;3.65;1.30;;;8.30;99.90;;;;;;5051673;28;20033;-37
2022/12/27 03:19:04;;;;;;;3.90;1.20;;;8.20;99.90;;;;;;5071837;28;20025;-37
2022/12/27 03:27:18;;;;;;;2.92;1.10;;;8.20;99.90;;;;;;5071386;28;20079;-37
2022/12/27 03:35:27;;;;;;;1.85;1.10;;;8.20;99.90;;;;;;5071983;28;20424;-37
2022/12/27 03:38:04;;;;;;;2.38;0.88;;;8.10;99.90;;;;;;5071233;28;20431;-37
2022/12/27 03:40:37;;;;;;;3.72;1.10;;;8.20;99.90;;;;;;5071443;28;20093;-38
2022/12/27 03:43:15;;;;;;;4.38;0.90;;;8.20;99.90;;;;;;5071572;28;20092;-37
2022/12/27 03:49:05;;;;;;;2.88;1.23;;;8.10;99.90;;;;;;5071354;28;20125;-37
2022/12/27 03:51:39;;;;;;;2.60;0.90;;;8.20;99.90;;;;;;5071561;28;20123;-38
2022/12/27 03:54:28;;;;;;;2.50;0.90;;;8.10;99.90;;;;;;5071687;28;20482;-37
2022/12/27 03:56:59;;;;;;;2.22;1.05;;;8.10;99.90;;;;;;5071101;28;20059;-37
2022/12/27 03:59:26;;;;;;;2.33;0.80;;;8.10;99.90;;;;;;5071205;28;20028;-37
2022/12/27 04:01:52;;;;;;;2.25;0.90;;;8.10;99.90;;;;;;5071347;28;20021;-37
2022/12/27 04:04:17;;;;;;;2.38;1.00;;;8.10;99.90;;;;;;5071463;28;20035;-38
2022/12/27 04:06:43;;;;;;;2.65;1.00;;;8.10;99.90;;;;;;5071200;28;20074;-37
2022/12/27 04:36:33;;;;;;;3.42;1.10;;;8.00;99.90;;;;;;5070632;28;20039;-37
2022/12/27 04:38:58;;;;;;;1.85;0.98;;;8.00;99.90;;;;;;5070819;28;20040;-37
2022/12/27 04:55:22;;;;;;;3.58;1.10;;;7.90;99.90;;;;;;5071228;28;20121;-37
2022/12/27 04:57:48;;;;;;;2.70;1.15;;;7.90;99.90;;;;;;5071973;28;20024;-37
2022/12/27 05:03:02;;;;;;;3.17;1.20;;;7.90;99.90;;;;;;5074866;28;20120;-37
2022/12/27 05:05:28;;;;;;;3.42;1.17;;;7.90;99.90;;;;;;5074404;28;20490;-37
2022/12/27 05:16:07;;;;;;;1.80;1.20;;;7.90;99.90;;;;;;5073721;28;20040;-37
2022/12/27 05:18:32;;;;;;;2.15;1.05;;;7.90;99.90;;;;;;5074157;28;20017;-37
2022/12/27 05:21:03;;;;;;;2.88;1.10;;;7.90;99.90;;;;;;5074167;28;20051;-37
2022/12/27 05:26:25;;;;;;;3.08;1.45;;;7.80;99.90;;;;;;5073675;28;20127;-37
2022/12/27 05:28:52;;;;;;;2.10;1.08;;;7.90;99.90;;;;;;5073965;28;20486;-38
2022/12/27 05:31:20;;;;;;;2.15;0.90;;;7.90;99.90;;;;;;5074203;28;20032;-37
2022/12/27 05:33:46;;;;;;;2.10;1.15;;;7.80;99.90;;;;;;5073963;28;20021;-37
2022/12/27 05:36:12;;;;;;;3.83;1.20;;;7.80;99.90;;;;;;5073549;28;20024;-37
2022/12/27 05:38:37;;;;;;;3.75;1.27;;;7.80;99.90;;;;;;5073662;28;20393;-37
2022/12/27 05:41:04;;;;;;;4.95;1.20;;;7.90;99.90;;;;;;5073766;28;20021;-38
2022/12/27 05:43:30;;;;;;;2.30;1.20;;;7.80;99.90;;;;;;5073705;28;20016;-37
2022/12/27 05:46:03;;;;;;;3.10;1.20;;;7.80;99.90;;;;;;5073566;28;20096;-37
2022/12/27 05:48:29;;;;;;;1.40;0.90;;;7.80;99.90;;;;;;5073708;28;20028;-37
2022/12/27 05:50:55;;;;;;;3.20;1.20;;;7.90;99.90;;;;;;5073616;28;20375;-37
2022/12/27 05:53:20;;;;;;;3.55;1.30;;;7.80;99.90;;;;;;5073588;28;20549;-37
2022/12/27 05:55:54;;;;;;;3.08;1.20;;;7.80;99.90;;;;;;5073255;28;20028;-37
2022/12/27 05:58:21;;;;;;;2.72;1.20;;;7.80;99.90;;;;;;5073359;28;20072;-36
2022/12/27 06:00:46;;;;;;;2.25;1.40;;;7.80;99.90;;;;;;5073372;28;20059;-37
2022/12/27 06:03:12;;;;;;;2.53;1.30;;;7.80;99.90;;;;;;5073342;28;20043;-37
2022/12/27 06:05:38;;;;;;;2.25;1.15;;;7.80;99.90;;;;;;5073098;28;20054;-37
2022/12/27 06:08:04;;;;;;;2.42;1.33;;;7.80;99.90;;;;;;5072411;28;20104;-37
2022/12/27 06:10:29;;;;;;;3.08;1.40;;;7.80;99.90;;;;;;5073192;28;20031;-37
2022/12/27 06:12:55;;;;;;;4.72;1.33;;;7.80;99.90;;;;;;5073189;28;20104;-37
2022/12/27 06:15:21;;;;;;;5.20;1.48;;;7.80;99.90;;;;;;5073136;28;20029;-37
2022/12/27 06:17:47;;;;;;;2.83;1.55;;;7.70;99.90;;;;;;5072909;28;20442;-37
2022/12/27 06:20:12;;;;;;;4.05;2.20;;;7.70;99.90;;;;;;5073000;28;20103;-38
2022/12/27 06:22:38;;;;;;;3.58;2.28;;;7.70;99.90;;;;;;5073461;28;20051;-37
2022/12/27 06:25:04;;;;;;;3.55;2.65;;;7.70;99.90;;;;;;5072895;28;20067;-37
2022/12/27 06:27:29;;;;;;;5.45;2.70;;;7.70;99.90;;;;;;5072865;28;20033;-37
2022/12/27 06:29:55;;;;;;;4.60;2.80;;;7.70;99.90;;;;;;5072749;28;20107;-37
2022/12/27 06:32:20;;;;;;;4.95;2.33;;;7.70;99.90;;;;;;5072685;28;20432;-37
2022/12/27 06:34:46;;;;;;;4.45;2.10;;;7.70;99.90;;;;;;5072720;28;20028;-37
2022/12/27 06:37:12;;;;;;;3.90;1.73;;;7.70;99.90;;;;;;5072752;28;20028;-37
2022/12/27 06:39:37;;;;;;;3.97;1.98;;;7.70;99.90;;;;;;5072606;28;20024;-37
2022/12/27 06:42:03;;;;;;;3.67;1.77;;;7.70;99.90;;;;;;5072568;28;20028;-37
2022/12/27 06:44:28;;;;;;;2.97;1.67;;;7.70;99.90;;;;;;5072479;28;20085;-37
2022/12/27 06:46:54;;;;;;;3.30;1.50;;;7.70;99.90;;;;;;5071952;28;20060;-37
2022/12/27 06:49:20;;;;;;;3.10;1.55;;;7.70;99.90;;;;;;5072788;28;20036;-37
2022/12/27 06:51:47;;;;;;;3.08;1.80;;;7.70;99.90;;;;;;5072615;28;20091;-36
2022/12/27 06:54:13;;;;;;;4.65;1.85;;;7.70;99.90;;;;;;5071003;28;20020;-37
2022/12/27 06:56:38;;;;;;;3.38;1.63;;;7.70;99.90;;;;;;5072349;28;20142;-37
2022/12/27 06:59:04;;;;;;;4.90;2.00;;;7.70;99.90;;;;;;5072211;28;20035;-37
2022/12/27 07:01:30;;;;;;;2.35;1.55;;;7.60;99.90;;;;;;5072099;28;20095;-37
2022/12/27 07:03:58;;;;;;;4.40;1.60;;;7.70;99.90;;;;;;5072241;28;20128;-37
2022/12/27 07:06:26;;;;;;;4.90;2.38;;;7.70;99.90;;;;;;5071893;28;20028;-38
2022/12/27 07:08:52;;;;;;;4.93;1.88;;;7.70;99.90;;;;;;5072010;28;20035;-37
2022/12/27 07:11:19;;;;;;;3.38;1.77;;;7.70;99.90;;;;;;5072073;28;20095;-37
2022/12/27 07:13:49;;;;;;;4.80;1.88;;;7.70;99.90;;;;;;5071936;28;20613;-36
2022/12/27 07:16:23;;;;;;;2.05;1.30;;;7.70;99.90;;;;;;5071772;28;20105;-37
2022/12/27 07:18:49;;;;;;;3.13;1.50;;;7.60;99.90;;;;;;5072074;28;20467;-37
2022/12/27 07:21:17;;;;;;;3.75;1.60;;;7.60;99.90;;;;;;5071052;28;20059;-37
2022/12/27 07:23:43;;;;;;;6.30;1.95;;;7.70;99.90;;;;;;5071790;28;20029;-37
2022/12/27 07:26:11;;;;;;;5.88;2.65;;;7.60;99.90;;;;;;5071372;28;20533;-37
2022/12/27 07:28:37;;;;;;;4.35;1.40;;;7.60;99.90;;;;;;5071518;28;20029;-37
2022/12/27 07:31:07;;;;;;;3.78;1.77;;;7.60;99.90;;;;;;5071649;28;20020;-37
2022/12/27 07:33:34;;;;;;;3.15;1.50;;;7.60;99.90;;;;;;5071633;28;20540;-37
2022/12/27 07:36:00;;;;;;;5.45;1.90;;;7.60;99.90;;;;;;5071408;28;20036;-37
2022/12/27 07:38:26;;;;;;;4.80;1.60;;;7.60;99.90;;;;;;5071461;28;20030;-38
2022/12/27 07:40:52;;;;;;;3.75;1.60;;;7.60;99.90;;;;;;5071465;28;20029;-37
2022/12/27 07:43:17;;;;;;;3.30;1.67;;;7.60;99.90;;;;;;5071331;28;20363;-37
2022/12/27 07:45:43;;;;;;;6.22;1.80;;;7.60;99.90;;;;;;5071336;28;20024;-37
2022/12/27 07:48:09;;;;;;;5.20;2.03;;;7.60;99.90;;;;;;5071249;28;20028;-37
2022/12/27 07:50:34;;;;;;;5.20;1.67;;;7.60;99.90;;;;;;5071545;28;20035;-37
2022/12/27 07:53:00;;;;;;;4.53;2.00;;;7.60;99.90;;;;;;5071382;28;20028;-37
2022/12/27 07:55:25;;;;;;;6.60;3.25;;;7.60;99.90;;;;;;5071164;28;20028;-36
2022/12/27 07:57:51;;;;;;;8.07;3.22;;;7.60;99.90;;;;;;5070990;28;20102;-37
2022/12/27 08:00:17;;;;;;;8.88;3.63;;;7.60;99.90;;;;;;5071328;28;20163;-37
2022/12/27 08:02:42;;;;;;;7.10;3.58;;;7.60;99.90;;;;;;5071358;28;20040;-37
2022/12/27 08:05:08;;;;;;;9.18;4.35;;;7.60;99.90;;;;;;5071306;28;20028;-37
2022/12/27 08:07:35;;;;;;;11.38;4.50;;;7.60;99.90;;;;;;5070886;28;20421;-36
2022/12/27 08:10:01;;;;;;;13.82;6.50;;;7.60;99.90;;;;;;5071157;28;20024;-36
2022/12/27 08:12:26;;;;;;;11.52;5.75;;;7.50;99.90;;;;;;5071044;28;20470;-36
2022/12/27 08:14:52;;;;;;;12.73;6.25;;;7.00;99.90;;;;;;5071202;28;20017;-35
2022/12/27 08:17:23;;;;;;;17.17;6.28;;;6.80;99.90;;;;;;5071055;28;20032;-36
2022/12/27 08:19:54;;;;;;;12.52;6.35;;;6.70;99.90;;;;;;5071119;28;20482;-37
2022/12/27 08:22:21;;;;;;;10.50;6.20;;;6.70;99.90;;;;;;5071107;28;20025;-36
2022/12/27 08:24:47;;;;;;;11.50;5.68;;;6.80;99.90;;;;;;5070943;28;20043;-36
2022/12/27 08:27:20;;;;;;;11.82;6.40;;;6.90;99.90;;;;;;5070791;28;20025;-36
2022/12/27 08:29:46;;;;;;;14.32;6.75;;;6.90;99.90;;;;;;5071112;28;20055;-36
2022/12/27 08:32:12;;;;;;;12.88;6.82;;;7.00;99.90;;;;;;5073609;28;20037;-36
2022/12/27 08:34:37;;;;;;;12.68;6.53;;;7.10;99.90;;;;;;5075143;28;20091;-37
2022/12/27 08:37:03;;;;;;;19.73;7.00;;;7.20;99.90;;;;;;5074663;28;20027;-36
2022/12/27 08:39:29;;;;;;;17.85;7.78;;;7.20;99.90;;;;;;5074828;28;20111;-36
2022/12/27 08:41:54;;;;;;;12.25;6.72;;;7.30;99.90;;;;;;5075071;28;20078;-37
2022/12/27 08:44:20;;;;;;;10.95;6.38;;;7.40;99.90;;;;;;5074807;28;20025;-37
2022/12/27 08:46:46;;;;;;;21.48;10.15;;;7.40;99.90;;;;;;5074403;28;20021;-36
2022/12/27 08:49:12;;;;;;;14.52;8.23;;;7.40;99.90;;;;;;5074680;28;20091;-36
2022/12/27 08:51:37;;;;;;;16.77;8.55;;;7.20;99.90;;;;;;5074724;28;20048;-36
2022/12/27 08:54:03;;;;;;;14.75;7.32;;;7.00;99.90;;;;;;5074447;28;20039;-36
2022/12/27 08:56:29;;;;;;;14.10;7.13;;;7.00;99.90;;;;;;5074291;28;20064;-36
2022/12/27 08:58:54;;;;;;;12.02;7.00;;;7.00;99.90;;;;;;5074573;28;20059;-36
2022/12/27 09:01:20;;;;;;;13.23;7.45;;;7.00;99.90;;;;;;5074556;28;20032;-36
2022/12/27 09:03:45;;;;;;;12.35;7.18;;;7.10;99.90;;;;;;5074572;28;20024;-36
2022/12/27 09:06:14;;;;;;;12.15;7.30;;;7.10;99.90;;;;;;5074173;28;20028;-36
2022/12/27 09:08:41;;;;;;;18.02;7.07;;;7.20;99.90;;;;;;5074369;28;20025;-36
2022/12/27 09:11:08;;;;;;;10.80;6.50;;;7.30;99.90;;;;;;5074310;28;20016;-36
2022/12/27 09:13:34;;;;;;;14.07;6.70;;;7.30;99.90;;;;;;5074501;28;20376;-36
2022/12/27 09:16:03;;;;;;;14.68;7.13;;;7.40;99.90;;;;;;5072735;28;20436;-36
2022/12/27 09:18:28;;;;;;;13.02;6.47;;;7.40;99.90;;;;;;5074147;28;20120;-36
2022/12/27 09:20:54;;;;;;;11.52;6.45;;;7.50;99.90;;;;;;5074355;28;20112;-36
2022/12/27 09:23:19;;;;;;;14.93;6.40;;;7.50;99.90;;;;;;5074063;28;20036;-36
2022/12/27 09:25:45;;;;;;;9.75;5.93;;;7.60;99.90;;;;;;5072607;28;20029;-36
2022/12/27 09:28:12;;;;;;;9.27;5.60;;;7.60;99.90;;;;;;5073841;28;20119;-36
2022/12/27 09:30:37;;;;;;;9.43;5.45;;;7.70;99.90;;;;;;5074009;28;20020;-36
2022/12/27 09:33:03;;;;;;;11.13;5.32;;;7.70;99.90;;;;;;5074167;28;20023;-36
2022/12/27 09:35:28;;;;;;;7.90;5.00;;;7.80;99.90;;;;;;5073806;28;20024;-36
2022/12/27 09:37:55;;;;;;;8.73;4.55;;;7.80;99.90;;;;;;5073566;28;20047;-36
2022/12/27 09:40:21;;;;;;;12.38;4.78;;;7.90;99.90;;;;;;5073781;28;20032;-36
2022/12/27 09:43:05;;;;;;;9.38;4.95;;;7.90;99.90;;;;;;5073001;28;20386;-36
2022/12/27 09:45:44;;;;;;;9.52;4.75;;;8.00;99.90;;;;;;5073821;28;20033;-36
2022/12/27 09:48:11;;;;;;;9.77;4.63;;;8.00;99.90;;;;;;5073400;28;20375;-36
2022/12/27 09:50:50;;;;;;;8.90;4.57;;;8.10;99.90;;;;;;5073688;28;20056;-36
2022/12/27 09:53:40;;;;;;;8.80;4.30;;;8.10;99.90;;;;;;5074487;28;20394;-36
2022/12/27 09:56:07;;;;;;;7.95;4.10;;;8.10;99.90;;;;;;5072938;28;20048;-36
2022/12/27 09:58:33;;;;;;;7.90;4.20;;;8.10;99.90;;;;;;5073648;28;20048;-36
2022/12/27 10:01:00;;;;;;;10.10;4.63;;;8.10;99.90;;;;;;5073418;28;20109;-45
2022/12/27 10:03:27;;;;;;;6.95;4.05;;;8.20;99.90;;;;;;5073387;28;20077;-45
2022/12/27 10:06:49;;;;;;;7.85;4.40;;;8.20;99.90;;;;;;5073180;28;20039;-44
2022/12/27 10:09:15;;;;;;;6.75;4.13;;;8.20;99.90;;;;;;5011684;28;20484;-45
2022/12/27 10:12:13;;;;;;;7.03;4.35;;;8.30;99.90;;;;;;5030471;28;20112;-45
2022/12/27 10:14:58;;;;;;;7.10;3.70;;;8.30;99.90;;;;;;5073545;28;20437;-44
2022/12/27 10:17:35;;;;;;;6.72;3.80;;;8.30;99.90;;;;;;5072724;28;20024;-45
2022/12/27 10:20:17;;;;;;;6.10;3.42;;;8.40;99.90;;;;;;5073081;28;20082;-45
2022/12/27 10:23:04;;;;;;;7.57;3.20;;;8.40;99.90;;;;;;5073036;28;20056;-45
2022/12/27 10:25:32;;;;;;;8.02;3.35;;;8.40;99.90;;;;;;5072742;28;20078;-44
2022/12/27 10:28:09;;;;;;;8.30;3.33;;;8.50;99.90;;;;;;5072550;28;20145;-45
2022/12/27 10:30:34;;;;;;;6.55;3.20;;;8.50;99.90;;;;;;5072927;28;20052;-45
2022/12/27 10:33:00;;;;;;;6.18;3.17;;;8.50;99.90;;;;;;5072789;28;20105;-45
2022/12/27 10:35:27;;;;;;;5.20;2.72;;;8.50;99.90;;;;;;5072701;28;20110;-44
2022/12/27 10:37:53;;;;;;;6.28;2.90;;;8.60;99.90;;;;;;5072434;28;20033;-45
2022/12/27 10:40:23;;;;;;;5.15;2.80;;;8.60;99.90;;;;;;5072467;28;20543;-45
2022/12/27 10:43:04;;;;;;;6.05;2.47;;;8.60;99.90;;;;;;5072837;28;20409;-45
2022/12/27 10:45:38;;;;;;;5.38;3.20;;;8.60;99.90;;;;;;5072449;28;20021;-44
2022/12/27 10:48:21;;;;;;;4.43;2.25;;;8.70;99.90;;;;;;5072196;28;20038;-46
2022/12/27 10:50:57;;;;;;;7.57;2.38;;;8.60;99.90;;;;;;5072294;28;20024;-45
2022/12/27 10:53:37;;;;;;;6.93;2.40;;;8.70;99.90;;;;;;5072352;28;20135;-46
2022/12/27 10:56:33;;;;;;;5.45;2.08;;;8.80;99.90;;;;;;5072255;28;20085;-45
2022/12/27 10:59:15;;;;;;;4.32;1.92;;;8.80;99.90;;;;;;5072172;28;20107;-45
2022/12/27 11:01:45;;;;;;;8.32;2.45;;;8.90;99.90;;;;;;5072296;28;20414;-45
2022/12/27 11:04:22;;;;;;;4.45;1.90;;;8.90;99.90;;;;;;5072158;28;20390;-46
2022/12/27 11:06:50;;;;;;;5.57;2.15;;;9.00;99.90;;;;;;5071836;28;20024;-45
2022/12/27 11:09:45;;;;;;;3.92;1.95;;;9.00;99.90;;;;;;5071961;28;20029;-45
2022/12/27 11:12:23;;;;;;;;;;;9.00;99.90;;;;;;5059418;28;20051;-45
2022/12/27 11:15:04;;;;;;;5.00;1.60;;;9.10;99.90;;;;;;5072110;28;19905;-45
2022/12/27 11:17:37;;;;;;;6.65;1.90;;;9.10;99.90;;;;;;5071590;28;20028;-45
2022/12/27 11:20:32;;;;;;;5.05;2.05;;;9.10;99.90;;;;;;5071895;28;20024;-45
2022/12/27 11:23:12;;;;;;;5.15;1.90;;;9.10;99.90;;;;;;5071789;28;20036;-45
2022/12/27 11:25:58;;;;;;;7.47;2.35;;;9.10;99.90;;;;;;5071739;28;20032;-45
2022/12/27 11:28:33;;;;;;;4.50;1.83;;;9.10;99.90;;;;;;5071535;28;20036;-45
2022/12/27 11:31:06;;;;;;;4.38;2.05;;;9.10;99.90;;;;;;5071834;28;20547;-45
2022/12/27 11:33:41;;;;;;;4.40;2.30;;;9.10;99.90;;;;;;5071759;28;20035;-45
2022/12/27 11:36:09;;;;;;;3.38;2.08;;;9.10;99.90;;;;;;5071370;28;20032;-45
2022/12/27 11:38:37;;;;;;;6.20;2.00;;;9.10;99.90;;;;;;5071436;28;20482;-45
2022/12/27 11:41:41;;;;;;;6.32;2.20;;;9.10;99.90;;;;;;5071546;28;20037;-45
2022/12/27 11:44:07;;;;;;;5.13;2.25;;;9.10;99.90;;;;;;5020693;28;20102;-45
2022/12/27 11:46:51;;;;;;;3.40;1.83;;;9.10;99.90;;;;;;5071177;28;20029;-45
2022/12/27 11:49:46;;;;;;;4.72;2.15;;;9.10;99.90;;;;;;5071518;28;20103;-45
2022/12/27 11:52:31;;;;;;;4.82;2.47;;;9.10;99.90;;;;;;5071408;28;20028;-45
2022/12/27 11:55:11;;;;;;;6.97;2.13;;;9.10;99.90;;;;;;5071245;28;20027;-46
2022/12/27 11:58:10;;;;;;;5.20;2.03;;;9.10;99.90;;;;;;5071077;28;20024;-47
2022/12/27 12:00:55;;;;;;;5.28;2.25;;;9.00;99.90;;;;;;5069983;28;20055;-46
2022/12/27 12:03:41;;;;;;;3.15;1.90;;;9.00;99.90;;;;;;5071293;28;20032;-45
2022/12/27 12:06:42;;;;;;;2.92;1.75;;;9.00;99.90;;;;;;5070625;28;20024;-46
2022/12/27 12:09:48;;;;;;;6.28;2.00;;;9.10;99.90;;;;;;5071320;28;20390;-45
2022/12/27 12:12:35;;;;;;;5.57;1.90;;;9.00;99.90;;;;;;5009133;28;20041;-46
2022/12/27 12:15:22;;;;;;;5.20;1.75;;;9.00;99.90;;;;;;5067011;28;20055;-46
2022/12/27 12:18:21;;;;;;;4.20;1.88;;;9.00;99.90;;;;;;5070718;28;20106;-46
2022/12/27 12:21:18;;;;;;;6.25;1.60;;;9.00;99.90;;;;;;5071193;28;20068;-46
2022/12/27 12:24:05;;;;;;;3.97;1.85;;;9.00;99.90;;;;;;5071121;28;20028;-46
2022/12/27 12:26:54;;;;;;;6.05;1.70;;;9.00;99.90;;;;;;5070911;28;20024;-46
2022/12/27 12:30:00;;;;;;;3.83;1.85;;;9.00;99.90;;;;;;5071196;28;20434;-46
2022/12/27 12:32:38;;;;;;;3.00;1.58;;;9.00;99.90;;;;;;5008883;28;20500;-46
2022/12/27 12:35:39;;;;;;;4.13;1.48;;;9.00;99.90;;;;;;5065524;28;20154;-45
2022/12/27 12:38:04;;;;;;;7.82;1.83;;;9.00;99.90;;;;;;5070719;28;20115;-46
2022/12/27 12:40:50;;;;;;;6.35;1.80;;;9.00;99.90;;;;;;5070906;28;20033;-45
2022/12/27 12:43:34;;;;;;;3.20;1.63;;;9.00;99.90;;;;;;5071143;28;20028;-47
2022/12/27 12:46:06;;;;;;;3.20;1.55;;;9.00;99.90;;;;;;5070683;28;20437;-46
2022/12/27 12:48:37;;;;;;;6.78;1.80;;;9.00;99.90;;;;;;5070803;28;20028;-47
2022/12/27 12:51:33;;;;;;;3.25;1.70;;;9.00;99.90;;;;;;5070656;28;20482;-46
2022/12/27 12:54:20;;;;;;;3.00;1.35;;;8.90;99.90;;;;;;5071242;28;20389;-46
2022/12/27 12:57:15;;;;;;;4.65;1.52;;;9.00;99.90;;;;;;5070725;28;20047;-45
2022/12/27 13:00:14;;;;;;;3.97;1.60;;;8.90;99.90;;;;;;5070861;28;20360;-46
2022/12/27 13:03:16;;;;;;;5.80;1.50;;;8.90;99.90;;;;;;5070786;28;20066;-47
2022/12/27 13:06:14;;;;;;;5.95;1.33;;;8.90;99.90;;;;;;5070449;28;20116;-46
2022/12/27 13:08:58;;;;;;;4.07;1.42;;;8.90;99.90;;;;;;5070569;28;20039;-46
2022/12/27 13:11:51;;;;;;;4.73;2.00;;;8.90;99.90;;;;;;5070704;28;20109;-45
2022/12/27 13:14:36;;;;;;;5.70;1.60;;;8.90;99.90;;;;;;5070688;28;20024;-46
2022/12/27 13:17:10;;;;;;;5.90;1.73;;;8.90;99.90;;;;;;5070157;28;20025;-46
2022/12/27 13:19:41;;;;;;;;;;;8.90;99.90;;;;;;5073670;28;20099;-46
2022/12/27 13:22:30;;;;;;;9.63;1.60;;;8.90;99.90;;;;;;5074296;28;19912;-45
2022/12/27 13:25:13;;;;;;;3.35;1.25;;;8.90;99.90;;;;;;5074146;28;20020;-45
2022/12/27 13:27:58;;;;;;;5.05;1.42;;;8.90;99.90;;;;;;5073703;28;20085;-47
2022/12/27 13:30:32;;;;;;;5.40;1.67;;;8.80;99.90;;;;;;5073943;28;20025;-46
2022/12/27 13:33:34;;;;;;;2.65;1.40;;;8.80;99.90;;;;;;5073999;28;20024;-45
2022/12/27 13:36:27;;;;;;;3.72;1.42;;;8.80;99.90;;;;;;5074085;28;20524;-46
2022/12/27 13:39:32;;;;;;;4.15;1.42;;;8.80;99.90;;;;;;5073920;28;20439;-45
2022/12/27 13:42:16;;;;;;;3.20;1.05;;;8.80;99.90;;;;;;5073841;28;20021;-46
2022/12/27 13:45:17;;;;;;;3.38;1.40;;;8.80;99.90;;;;;;5073706;28;20029;-46
2022/12/27 13:48:04;;;;;;;3.40;1.30;;;8.80;99.90;;;;;;5072822;28;20075;-45
2022/12/27 13:50:50;;;;;;;4.38;1.40;;;8.80;99.90;;;;;;5073689;28;20429;-45
2022/12/27 13:53:54;;;;;;;5.00;1.50;;;8.80;99.90;;;;;;5073551;28;20029;-45
2022/12/27 13:56:38;;;;;;;4.40;1.30;;;8.80;99.90;;;;;;5071204;28;20044;-45
2022/12/27 13:59:48;;;;;;;6.13;1.45;;;8.80;99.90;;;;;;5073598;28;20100;-44
2022/12/27 14:02:42;;;;;;;8.50;1.63;;;8.80;99.90;;;;;;5049892;28;20037;-41
2022/12/27 14:05:16;;;;;;;5.68;1.52;;;8.70;99.90;;;;;;5073468;28;20138;-40
2022/12/27 14:08:05;;;;;;;;;;;8.60;99.90;;;;;;5073317;28;20076;-41
2022/12/27 14:10:35;;;;;;;3.17;1.42;;;8.60;99.90;;;;;;5044370;28;19908;-40
2022/12/27 14:13:10;;;;;;;6.05;1.60;;;8.60;99.90;;;;;;5073526;28;20389;-43
2022/12/27 14:15:42;;;;;;;4.85;1.80;;;8.60;99.90;;;;;;5072880;28;20482;-42
2022/12/27 14:18:37;;;;;;;7.38;2.03;;;8.60;99.90;;;;;;5073009;28;20029;-38
2022/12/27 14:21:02;;;;;;;5.20;1.77;;;8.60;99.90;;;;;;5073142;28;20029;-44
2022/12/27 14:23:58;;;;;;;7.97;1.60;;;8.60;99.90;;;;;;5072936;28;20085;-41
2022/12/27 14:26:56;;;;;;;5.97;1.55;;;8.70;99.90;;;;;;5072585;28;20081;-39
2022/12/27 14:29:33;;;;;;;4.88;1.45;;;8.60;99.90;;;;;;5072573;28;20024;-40
2022/12/27 14:32:21;;;;;;;5.93;1.58;;;8.70;99.90;;;;;;5074170;28;20040;-40
2022/12/27 14:35:44;;;;;;;5.60;1.73;;;8.70;99.90;;;;;;5072810;28;20025;-42
2022/12/27 14:38:32;;;;;;;6.20;1.70;;;8.70;99.90;;;;;;5029806;28;20438;-41
2022/12/27 14:41:27;;;;;;;4.78;1.60;;;8.70;99.90;;;;;;5072762;28;20059;-41
2022/12/27 14:44:24;;;;;;;3.60;1.25;;;8.70;99.90;;;;;;5072801;28;20020;-41
2022/12/27 14:47:29;;;;;;;4.18;1.55;;;8.70;99.90;;;;;;5072362;28;20114;-40
2022/12/27 14:50:31;;;;;;;4.50;1.50;;;8.70;99.90;;;;;;5072437;28;20024;-43
2022/12/27 14:53:11;;;;;;;4.03;1.50;;;8.70;99.90;;;;;;5072349;28;20074;-40
2022/12/27 14:55:41;;;;;;;3.40;1.33;;;8.70;99.90;;;;;;5072237;28;20035;-41
2022/12/27 14:58:13;;;;;;;5.75;1.73;;;8.70;99.90;;;;;;5072091;28;20146;-40
2022/12/27 15:01:13;;;;;;;4.97;1.77;;;8.70;99.90;;;;;;5072333;28;20119;-38
2022/12/27 15:03:59;;;;;;;5.20;1.50;;;8.70;99.90;;;;;;5061490;28;20089;-38
2022/12/27 15:06:51;;;;;;;5.85;1.58;;;8.70;99.90;;;;;;5040523;28;20039;-41
2022/12/27 15:09:38;;;;;;;3.78;1.60;;;8.70;99.90;;;;;;5072150;28;20025;-38
2022/12/27 15:12:21;;;;;;;4.05;2.10;;;8.70;99.90;;;;;;5072002;28;20479;-39
2022/12/27 15:14:59;;;;;;;6.40;2.40;;;8.70;99.90;;;;;;5072106;28;20052;-40